createdAt,value
2023-04-03T00:00:25.054Z,5.58
2023-04-03T00:01:25.004Z,5.58
2023-04-03T00:02:25.032Z,5.52
2023-04-03T00:03:25.042Z,5.44
2023-04-03T00:04:25.030Z,5.38
2023-04-03T00:05:24.992Z,5.34
2023-04-03T00:06:24.966Z,5.37
2023-04-03T00:07:24.948Z,5.40
2023-04-03T00:08:24.928Z,5.47
2023-04-03T00:09:24.923Z,5.47
2023-04-03T00:10:24.992Z,5.43
2023-04-03T00:11:24.929Z,5.44
2023-04-03T00:12:24.888Z,5.44
2023-04-03T00:13:24.868Z,5.47
2023-04-03T00:14:24.845Z,5.38
2023-04-03T00:15:24.873Z,5.31
2023-04-03T00:16:24.880Z,5.34
2023-04-03T00:17:24.805Z,5.29
2023-04-03T00:18:24.883Z,5.31
2023-04-03T00:19:24.825Z,5.34
2023-04-03T00:20:24.884Z,5.26
2023-04-03T00:21:24.840Z,5.22
2023-04-03T00:22:24.825Z,5.20
2023-04-03T00:23:24.755Z,5.19
2023-04-03T00:24:24.750Z,5.19
2023-04-03T00:25:24.865Z,5.18
2023-04-03T00:26:24.720Z,5.15
2023-04-03T00:27:24.734Z,5.16
2023-04-03T00:28:24.711Z,5.08
2023-04-03T00:29:24.680Z,5.05
2023-04-03T00:30:24.707Z,5.13
2023-04-03T00:31:24.711Z,5.15
2023-04-03T00:32:24.682Z,5.04
2023-04-03T00:33:24.651Z,5.05
2023-04-03T00:34:24.668Z,5.13
2023-04-03T00:35:24.624Z,5.18
2023-04-03T00:36:24.692Z,5.19
2023-04-03T00:37:24.621Z,5.13
2023-04-03T00:38:24.608Z,5.02
2023-04-03T00:39:24.589Z,5.01
2023-04-03T00:40:24.594Z,5.05
2023-04-03T00:41:24.562Z,5.10
2023-04-03T00:42:24.766Z,5.05
2023-04-03T00:43:24.539Z,4.95
2023-04-03T00:44:24.517Z,4.89
2023-04-03T00:45:24.523Z,4.92
2023-04-03T00:46:24.597Z,5.00
2023-04-03T00:47:24.520Z,5.00
2023-04-03T00:48:24.538Z,4.97
2023-04-03T00:49:24.536Z,4.94
2023-04-03T00:50:24.454Z,4.89
2023-04-03T00:51:24.438Z,4.92
2023-04-03T00:52:24.436Z,4.94
2023-04-03T00:53:24.425Z,4.97
2023-04-03T00:54:24.451Z,4.97
2023-04-03T00:55:24.407Z,4.95
2023-04-03T00:56:24.567Z,4.90
2023-04-03T00:57:24.596Z,4.83
2023-04-03T00:58:24.403Z,4.82
2023-04-03T00:59:24.374Z,4.83
2023-04-03T01:00:24.350Z,4.79
2023-04-03T01:01:24.435Z,4.78
2023-04-03T01:02:24.402Z,4.82
2023-04-03T01:03:24.356Z,4.82
2023-04-03T01:04:24.380Z,4.76
2023-04-03T01:05:24.339Z,4.75
2023-04-03T01:06:24.333Z,4.75
2023-04-03T01:07:24.341Z,4.79
2023-04-03T01:08:24.364Z,4.75
2023-04-03T01:09:24.310Z,4.70
2023-04-03T01:10:24.316Z,4.63
2023-04-03T01:11:24.270Z,4.66
2023-04-03T01:12:24.271Z,4.67
2023-04-03T01:13:24.281Z,4.70
2023-04-03T01:14:24.229Z,4.71
2023-04-03T01:15:24.228Z,4.61
2023-04-03T01:16:24.201Z,4.60
2023-04-03T01:17:24.206Z,4.63
2023-04-03T01:18:24.227Z,4.63
2023-04-03T01:19:24.152Z,4.60
2023-04-03T01:20:24.172Z,4.58
2023-04-03T01:21:24.146Z,4.63
2023-04-03T01:22:24.148Z,4.61
2023-04-03T01:23:24.112Z,4.61
2023-04-03T01:24:24.116Z,4.57
2023-04-03T01:25:24.128Z,4.56
2023-04-03T01:26:24.128Z,4.46
2023-04-03T01:27:24.144Z,4.42
2023-04-03T01:28:24.131Z,4.31
2023-04-03T01:29:24.073Z,4.34
2023-04-03T01:30:24.072Z,4.34
2023-04-03T01:31:24.070Z,4.39
2023-04-03T01:32:24.019Z,4.38
2023-04-03T01:33:24.025Z,4.27
2023-04-03T01:34:24.030Z,4.22
2023-04-03T01:35:24.064Z,4.20
2023-04-03T01:36:24.071Z,4.22
2023-04-03T01:37:24.029Z,4.34
2023-04-03T01:38:23.991Z,4.38
2023-04-03T01:39:24.014Z,4.40
2023-04-03T01:40:24.069Z,4.32
2023-04-03T01:41:23.941Z,4.28
2023-04-03T01:42:23.935Z,4.27
2023-04-03T01:43:23.907Z,4.28
2023-04-03T01:44:23.925Z,4.21
2023-04-03T01:45:23.960Z,4.22
2023-04-03T01:46:23.882Z,4.10
2023-04-03T01:47:23.896Z,4.16
2023-04-03T01:48:23.874Z,4.21
2023-04-03T01:49:23.888Z,4.14
2023-04-03T01:50:23.838Z,4.16
2023-04-03T01:51:23.836Z,4.09
2023-04-03T01:52:23.832Z,4.13
2023-04-03T01:53:23.817Z,4.18
2023-04-03T01:54:23.816Z,4.14
2023-04-03T01:55:23.786Z,4.14
2023-04-03T01:56:23.773Z,4.06
2023-04-03T01:57:23.813Z,4.06
2023-04-03T01:58:23.776Z,3.96
2023-04-03T01:59:23.749Z,4.00
2023-04-03T02:00:23.762Z,4.07
2023-04-03T02:01:23.758Z,4.06
2023-04-03T02:02:23.740Z,3.99
2023-04-03T02:03:23.714Z,4.07
2023-04-03T02:04:23.728Z,4.04
2023-04-03T02:05:23.710Z,4.00
2023-04-03T02:06:23.705Z,4.02
2023-04-03T02:07:23.701Z,4.10
2023-04-03T02:08:23.908Z,4.09
2023-04-03T02:09:23.669Z,4.04
2023-04-03T02:10:23.683Z,3.96
2023-04-03T02:11:23.693Z,3.91
2023-04-03T02:12:23.638Z,3.91
2023-04-03T02:13:23.611Z,4.03
2023-04-03T02:14:23.670Z,4.00
2023-04-03T02:15:23.588Z,3.95
2023-04-03T02:16:23.615Z,4.00
2023-04-03T02:17:23.580Z,4.09
2023-04-03T02:18:23.701Z,4.07
2023-04-03T02:19:23.575Z,4.00
2023-04-03T02:20:23.530Z,3.99
2023-04-03T02:21:23.517Z,4.03
2023-04-03T02:22:23.560Z,3.99
2023-04-03T02:23:23.515Z,3.88
2023-04-03T02:24:23.493Z,3.82
2023-04-03T02:25:23.492Z,3.94
2023-04-03T02:26:23.468Z,3.96
2023-04-03T02:27:23.492Z,3.89
2023-04-03T02:28:23.513Z,3.86
2023-04-03T02:29:23.464Z,3.81
2023-04-03T02:30:23.469Z,3.71
2023-04-03T02:31:23.495Z,3.78
2023-04-03T02:32:23.418Z,3.82
2023-04-03T02:33:23.499Z,3.84
2023-04-03T02:34:23.397Z,3.81
2023-04-03T02:35:23.407Z,3.76
2023-04-03T02:36:23.360Z,3.66
2023-04-03T02:37:23.380Z,3.63
2023-04-03T02:38:23.364Z,3.63
2023-04-03T02:39:23.384Z,3.58
2023-04-03T02:40:23.341Z,3.61
2023-04-03T02:41:23.324Z,3.64
2023-04-03T02:42:23.311Z,3.61
2023-04-03T02:43:23.385Z,3.66
2023-04-03T02:44:23.284Z,3.68
2023-04-03T02:45:23.306Z,3.70
2023-04-03T02:46:23.303Z,3.74
2023-04-03T02:47:23.299Z,3.81
2023-04-03T02:48:23.290Z,3.78
2023-04-03T02:49:23.281Z,3.73
2023-04-03T02:50:23.239Z,3.68
2023-04-03T02:51:23.257Z,3.74
2023-04-03T02:52:23.232Z,3.68
2023-04-03T02:53:23.221Z,3.66
2023-04-03T02:54:23.173Z,3.59
2023-04-03T02:55:23.220Z,3.52
2023-04-03T02:56:23.157Z,3.53
2023-04-03T02:57:23.230Z,3.61
2023-04-03T02:58:23.183Z,3.61
2023-04-03T02:59:23.163Z,3.61
2023-04-03T03:00:23.204Z,3.64
2023-04-03T03:01:23.178Z,3.73
2023-04-03T03:02:23.106Z,3.61
2023-04-03T03:03:23.148Z,3.58
2023-04-03T03:04:23.112Z,3.48
2023-04-03T03:05:23.197Z,3.45
2023-04-03T03:06:23.059Z,3.50
2023-04-03T03:07:23.127Z,3.53
2023-04-03T03:08:23.036Z,3.55
2023-04-03T03:09:23.031Z,3.53
2023-04-03T03:10:23.025Z,3.52
2023-04-03T03:11:23.047Z,3.46
2023-04-03T03:12:23.060Z,3.37
2023-04-03T03:13:22.977Z,3.37
2023-04-03T03:14:22.991Z,3.36
2023-04-03T03:15:23.010Z,3.41
2023-04-03T03:16:22.997Z,3.48
2023-04-03T03:17:23.015Z,3.41
2023-04-03T03:18:22.949Z,3.34
2023-04-03T03:19:22.933Z,3.29
2023-04-03T03:20:23.036Z,3.19
2023-04-03T03:21:22.915Z,3.29
2023-04-03T03:22:22.940Z,3.31
2023-04-03T03:23:22.900Z,3.34
2023-04-03T03:24:22.874Z,3.29
2023-04-03T03:25:22.881Z,3.26
2023-04-03T03:26:22.864Z,3.21
2023-04-03T03:27:22.958Z,3.26
2023-04-03T03:28:22.892Z,3.29
2023-04-03T03:29:22.879Z,3.40
2023-04-03T03:30:22.883Z,3.41
2023-04-03T03:31:22.906Z,3.29
2023-04-03T03:32:22.943Z,3.29
2023-04-03T03:33:22.830Z,3.31
2023-04-03T03:34:22.790Z,3.30
2023-04-03T03:35:22.768Z,3.18
2023-04-03T03:36:22.770Z,3.15
2023-04-03T03:37:22.770Z,3.16
2023-04-03T03:38:22.727Z,3.16
2023-04-03T03:39:22.749Z,3.18
2023-04-03T03:40:22.776Z,3.19
2023-04-03T03:41:22.776Z,3.18
2023-04-03T03:42:22.685Z,3.15
2023-04-03T03:43:22.677Z,3.15
2023-04-03T03:44:22.677Z,3.09
2023-04-03T03:45:22.665Z,3.16
2023-04-03T03:46:22.810Z,3.24
2023-04-03T03:47:22.644Z,3.13
2023-04-03T03:48:22.621Z,3.05
2023-04-03T03:49:22.717Z,3.00
2023-04-03T03:50:22.594Z,2.90
2023-04-03T03:51:22.606Z,2.95
2023-04-03T03:52:22.608Z,3.05
2023-04-03T03:53:22.663Z,3.12
2023-04-03T03:54:22.619Z,3.00
2023-04-03T03:55:22.570Z,3.03
2023-04-03T03:56:22.544Z,3.13
2023-04-03T03:57:22.589Z,3.15
2023-04-03T03:58:22.496Z,3.13
2023-04-03T03:59:22.519Z,3.05
2023-04-03T04:00:22.517Z,3.00
2023-04-03T04:01:22.487Z,3.03
2023-04-03T04:02:22.576Z,3.11
2023-04-03T04:03:22.583Z,3.03
2023-04-03T04:04:22.510Z,3.00
2023-04-03T04:05:22.462Z,2.98
2023-04-03T04:06:22.460Z,3.03
2023-04-03T04:07:22.440Z,3.05
2023-04-03T04:08:22.538Z,3.01
2023-04-03T04:09:22.427Z,2.95
2023-04-03T04:10:22.458Z,2.98
2023-04-03T04:11:22.448Z,3.06
2023-04-03T04:12:22.392Z,3.03
2023-04-03T04:13:22.384Z,3.00
2023-04-03T04:14:22.386Z,2.95
2023-04-03T04:15:22.368Z,2.95
2023-04-03T04:16:22.368Z,2.93
2023-04-03T04:17:22.375Z,2.94
2023-04-03T04:18:22.332Z,2.95
2023-04-03T04:19:22.323Z,2.94
2023-04-03T04:20:22.351Z,2.91
2023-04-03T04:21:22.360Z,2.93
2023-04-03T04:22:22.326Z,2.93
2023-04-03T04:23:22.273Z,2.87
2023-04-03T04:24:22.382Z,2.70
2023-04-03T04:25:22.294Z,2.76
2023-04-03T04:26:22.266Z,2.72
2023-04-03T04:27:22.269Z,2.72
2023-04-03T04:28:22.185Z,2.69
2023-04-03T04:29:22.177Z,2.68
2023-04-03T04:30:22.136Z,2.69
2023-04-03T04:31:22.237Z,2.68
2023-04-03T04:32:22.152Z,2.69
2023-04-03T04:33:22.199Z,2.64
2023-04-03T04:34:22.106Z,2.58
2023-04-03T04:35:22.209Z,2.59
2023-04-03T04:36:22.268Z,2.62
2023-04-03T04:37:22.186Z,2.75
2023-04-03T04:38:22.095Z,2.62
2023-04-03T04:39:22.069Z,2.64
2023-04-03T04:40:22.096Z,2.72
2023-04-03T04:41:22.030Z,2.75
2023-04-03T04:42:22.035Z,2.79
2023-04-03T04:43:22.030Z,2.70
2023-04-03T04:44:22.006Z,2.69
2023-04-03T04:45:21.987Z,2.69
2023-04-03T04:46:22.099Z,2.69
2023-04-03T04:47:21.979Z,2.69
2023-04-03T04:48:21.950Z,2.69
2023-04-03T04:49:21.944Z,2.69
2023-04-03T04:50:21.963Z,2.64
2023-04-03T04:51:21.950Z,2.61
2023-04-03T04:52:21.962Z,2.59
2023-04-03T04:53:21.939Z,2.59
2023-04-03T04:54:21.925Z,2.55
2023-04-03T04:55:21.938Z,2.64
2023-04-03T04:56:21.870Z,2.68
2023-04-03T04:57:22.058Z,2.64
2023-04-03T04:58:21.854Z,2.58
2023-04-03T04:59:22.159Z,2.61
2023-04-03T05:00:21.820Z,2.58
2023-04-03T05:01:21.879Z,2.61
2023-04-03T05:02:21.823Z,2.64
2023-04-03T05:03:21.806Z,2.69
2023-04-03T05:04:21.833Z,2.68
2023-04-03T05:05:21.796Z,2.59
2023-04-03T05:06:21.784Z,2.61
2023-04-03T05:07:21.751Z,2.65
2023-04-03T05:08:21.747Z,2.54
2023-04-03T05:09:21.837Z,2.51
2023-04-03T05:10:21.744Z,2.50
2023-04-03T05:11:21.777Z,2.54
2023-04-03T05:12:21.713Z,2.54
2023-04-03T05:13:21.712Z,2.54
2023-04-03T05:14:21.733Z,2.54
2023-04-03T05:15:21.711Z,2.61
2023-04-03T05:16:21.747Z,2.65
2023-04-03T05:17:21.770Z,2.69
2023-04-03T05:18:21.673Z,2.70
2023-04-03T05:19:21.651Z,2.62
2023-04-03T05:20:21.613Z,2.55
2023-04-03T05:21:21.646Z,2.46
2023-04-03T05:22:21.740Z,2.44
2023-04-03T05:23:21.630Z,2.34
2023-04-03T05:24:21.613Z,2.34
2023-04-03T05:25:21.598Z,2.37
2023-04-03T05:26:21.573Z,2.40
2023-04-03T05:27:21.590Z,2.44
2023-04-03T05:28:21.586Z,2.50
2023-04-03T05:29:21.562Z,2.43
2023-04-03T05:30:21.562Z,2.50
2023-04-03T05:31:21.566Z,2.57
2023-04-03T05:32:21.518Z,2.52
2023-04-03T05:33:21.511Z,2.52
2023-04-03T05:34:21.504Z,2.54
2023-04-03T05:35:21.508Z,2.55
2023-04-03T05:36:21.528Z,2.43
2023-04-03T05:37:21.525Z,2.52
2023-04-03T05:38:21.486Z,2.58
2023-04-03T05:39:21.435Z,2.54
2023-04-03T05:40:21.447Z,2.61
2023-04-03T05:41:21.429Z,2.64
2023-04-03T05:42:21.419Z,2.61
2023-04-03T05:43:21.408Z,2.62
2023-04-03T05:44:21.403Z,2.55
2023-04-03T05:45:21.367Z,2.44
2023-04-03T05:46:21.413Z,2.50
2023-04-03T05:47:21.341Z,2.58
2023-04-03T05:48:21.324Z,2.50
2023-04-03T05:49:21.362Z,2.62
2023-04-03T05:50:21.350Z,2.58
2023-04-03T05:51:21.363Z,2.58
2023-04-03T05:52:21.328Z,2.58
2023-04-03T05:53:21.390Z,2.62
2023-04-03T05:54:21.295Z,2.69
2023-04-03T05:55:21.389Z,2.87
2023-04-03T05:56:21.301Z,3.09
2023-04-03T05:57:21.408Z,3.24
2023-04-03T05:58:21.310Z,3.40
2023-04-03T05:59:21.282Z,3.67
2023-04-03T06:00:21.252Z,3.88
2023-04-03T06:01:21.264Z,4.04
2023-04-03T06:02:21.257Z,4.16
2023-04-03T06:03:21.295Z,4.27
2023-04-03T06:04:21.308Z,4.31
2023-04-03T06:05:21.192Z,4.34
2023-04-03T06:06:21.179Z,4.32
2023-04-03T06:07:21.225Z,4.40
2023-04-03T06:08:21.150Z,4.36
2023-04-03T06:09:21.264Z,4.38
2023-04-03T06:10:21.312Z,4.38
2023-04-03T06:11:21.139Z,4.42
2023-04-03T06:12:21.141Z,4.46
2023-04-03T06:13:21.221Z,4.56
2023-04-03T06:14:21.115Z,4.60
2023-04-03T06:15:21.083Z,4.67
2023-04-03T06:16:21.088Z,4.71
2023-04-03T06:17:21.135Z,4.75
2023-04-03T06:18:21.053Z,4.76
2023-04-03T06:19:21.053Z,4.79
2023-04-03T06:20:21.012Z,4.82
2023-04-03T06:21:21.020Z,4.89
2023-04-03T06:22:21.036Z,4.92
2023-04-03T06:23:20.976Z,4.97
2023-04-03T06:24:21.017Z,5.00
2023-04-03T06:25:20.984Z,5.04
2023-04-03T06:26:21.105Z,5.02
2023-04-03T06:27:20.951Z,5.04
2023-04-03T06:28:20.928Z,5.02
2023-04-03T06:29:20.965Z,5.08
2023-04-03T06:30:20.913Z,5.16
2023-04-03T06:31:21.023Z,5.25
2023-04-03T06:32:20.894Z,5.33
2023-04-03T06:33:20.918Z,5.31
2023-04-03T06:34:21.586Z,5.28
2023-04-03T06:35:20.882Z,5.41
2023-04-03T06:36:20.863Z,5.41
2023-04-03T06:37:20.903Z,5.37
2023-04-03T06:38:20.836Z,5.43
2023-04-03T06:39:21.039Z,5.41
2023-04-03T06:40:20.851Z,5.44
2023-04-03T06:41:20.849Z,5.44
2023-04-03T06:42:20.839Z,5.51
2023-04-03T06:43:21.197Z,5.54
2023-04-03T06:44:20.825Z,5.49
2023-04-03T06:45:20.755Z,5.47
2023-04-03T06:46:20.790Z,5.49
2023-04-03T06:47:20.777Z,5.43
2023-04-03T06:48:20.778Z,5.46
2023-04-03T06:49:20.838Z,5.44
2023-04-03T06:50:20.704Z,5.52
2023-04-03T06:51:20.750Z,5.56
2023-04-03T06:53:20.772Z,5.59
2023-04-03T06:54:20.662Z,5.55
2023-04-03T06:55:20.690Z,5.55
2023-04-03T06:56:20.673Z,5.54
2023-04-03T06:57:20.715Z,5.51
2023-04-03T06:58:21.901Z,5.58
2023-04-03T06:59:20.605Z,5.61
2023-04-03T07:00:20.617Z,5.74
2023-04-03T07:01:20.753Z,5.81
2023-04-03T07:02:20.805Z,5.87
2023-04-03T07:03:20.574Z,5.92
2023-04-03T07:04:20.617Z,5.97
2023-04-03T07:05:20.571Z,6.02
2023-04-03T07:06:20.573Z,6.06
2023-04-03T07:07:20.592Z,6.07
2023-04-03T07:08:20.510Z,5.99
2023-04-03T07:09:20.520Z,6.02
2023-04-03T07:10:20.616Z,6.09
2023-04-03T07:11:20.525Z,6.17
2023-04-03T07:12:20.622Z,6.19
2023-04-03T07:13:20.512Z,6.22
2023-04-03T07:14:20.465Z,6.25
2023-04-03T07:15:20.599Z,6.29
2023-04-03T07:16:20.549Z,6.35
2023-04-03T07:17:20.470Z,6.44
2023-04-03T07:18:20.415Z,6.56
2023-04-03T07:19:20.436Z,6.68
2023-04-03T07:20:20.778Z,6.80
2023-04-03T07:21:20.496Z,6.93
2023-04-03T07:22:20.364Z,7.00
2023-04-03T07:23:20.350Z,7.11
2023-04-03T07:24:20.366Z,7.18
2023-04-03T07:25:20.322Z,7.33
2023-04-03T07:26:20.536Z,7.47
2023-04-03T07:27:20.663Z,7.59
2023-04-03T07:28:20.355Z,7.70
2023-04-03T07:29:20.324Z,7.81
2023-04-03T07:30:20.324Z,7.87
2023-04-03T07:31:20.442Z,7.98
2023-04-03T07:32:20.296Z,8.16
2023-04-03T07:33:20.240Z,8.31
2023-04-03T07:34:20.226Z,8.31
2023-04-03T07:35:20.286Z,8.32
2023-04-03T07:36:20.968Z,8.50
2023-04-03T07:37:20.238Z,8.59
2023-04-03T07:38:20.268Z,8.63
2023-04-03T07:39:20.234Z,8.74
2023-04-03T07:40:20.865Z,8.82
2023-04-03T07:41:20.250Z,8.84
2023-04-03T07:42:20.260Z,8.90
2023-04-03T07:43:20.162Z,8.96
2023-04-03T07:44:20.182Z,9.08
2023-04-03T07:45:20.151Z,9.11
2023-04-03T07:46:20.257Z,9.19
2023-04-03T07:47:20.229Z,9.34
2023-04-03T07:48:20.125Z,9.26
2023-04-03T07:49:20.216Z,9.47
2023-04-03T07:50:20.107Z,9.63
2023-04-03T07:51:20.179Z,9.80
2023-04-03T07:52:20.095Z,9.90
2023-04-03T07:53:20.095Z,9.91
2023-04-03T07:54:20.239Z,9.99
2023-04-03T07:55:20.075Z,10.06
2023-04-03T07:56:20.045Z,10.20
2023-04-03T07:57:20.040Z,10.30
2023-04-03T07:58:20.024Z,10.41
2023-04-03T07:59:20.004Z,10.53
2023-04-03T08:00:19.985Z,10.64
2023-04-03T08:01:19.981Z,10.72
2023-04-03T08:02:19.977Z,10.82
2023-04-03T08:03:20.106Z,10.84
2023-04-03T08:04:20.099Z,10.83
2023-04-03T08:05:19.900Z,10.82
2023-04-03T08:06:29.416Z,10.76
2023-04-03T08:07:20.931Z,10.89
2023-04-03T08:08:21.297Z,11.10
2023-04-03T08:09:19.882Z,11.23
2023-04-03T08:10:19.904Z,11.44
2023-04-03T08:11:19.907Z,11.60
2023-04-03T08:12:19.920Z,11.67
2023-04-03T08:13:20.837Z,11.78
2023-04-03T08:14:19.871Z,11.86
2023-04-03T08:15:19.863Z,12.05
2023-04-03T08:16:20.010Z,12.17
2023-04-03T08:17:19.792Z,12.18
2023-04-03T08:18:19.789Z,12.28
2023-04-03T08:19:26.320Z,11.96
2023-04-03T08:20:20.808Z,11.83
2023-04-03T08:21:19.808Z,11.68
2023-04-03T08:22:19.760Z,11.62
2023-04-03T08:23:20.140Z,11.62
2023-04-03T08:24:19.720Z,11.74
2023-04-03T08:25:19.781Z,12.08
2023-04-03T08:26:19.706Z,12.35
2023-04-03T08:27:19.752Z,12.57
2023-04-03T08:28:19.738Z,12.78
2023-04-03T08:29:19.786Z,12.94
2023-04-03T08:30:19.649Z,13.13
2023-04-03T08:31:19.714Z,13.33
2023-04-03T08:32:19.638Z,13.27
2023-04-03T08:33:19.750Z,13.49
2023-04-03T08:34:19.656Z,13.58
2023-04-03T08:35:19.614Z,13.65
2023-04-03T08:36:19.664Z,13.58
2023-04-03T08:37:19.563Z,13.61
2023-04-03T08:38:19.597Z,13.64
2023-04-03T08:39:19.650Z,13.70
2023-04-03T08:40:19.563Z,13.71
2023-04-03T08:41:19.542Z,13.71
2023-04-03T08:42:19.609Z,13.67
2023-04-03T08:43:19.522Z,13.80
2023-04-03T08:44:19.573Z,13.98
2023-04-03T08:45:19.482Z,14.08
2023-04-03T08:46:19.571Z,14.23
2023-04-03T08:47:19.458Z,14.49
2023-04-03T08:48:19.456Z,14.67
2023-04-03T08:49:19.592Z,14.55
2023-04-03T08:50:19.490Z,14.53
2023-04-03T08:51:19.716Z,14.56
2023-04-03T08:52:19.438Z,14.44
2023-04-03T08:53:19.410Z,14.52
2023-04-03T08:54:19.405Z,14.61
2023-04-03T08:55:19.416Z,14.66
2023-04-03T08:56:19.358Z,14.67
2023-04-03T08:57:19.422Z,14.81
2023-04-03T08:58:19.404Z,14.87
2023-04-03T08:59:19.343Z,14.93
2023-04-03T09:00:19.452Z,14.99
2023-04-03T09:01:19.370Z,14.99
2023-04-03T09:02:19.355Z,15.08
2023-04-03T09:03:19.583Z,15.11
2023-04-03T09:04:19.484Z,15.17
2023-04-03T09:05:19.280Z,15.30
2023-04-03T09:06:19.303Z,15.27
2023-04-03T09:07:19.289Z,15.32
2023-04-03T09:08:19.236Z,15.27
2023-04-03T09:09:19.284Z,15.22
2023-04-03T09:10:19.307Z,15.22
2023-04-03T09:11:19.275Z,15.45
2023-04-03T09:12:19.258Z,15.47
2023-04-03T09:13:19.225Z,15.43
2023-04-03T09:14:19.179Z,15.14
2023-04-03T09:15:27.797Z,15.08
2023-04-03T09:16:20.193Z,15.08
2023-04-03T09:17:19.121Z,15.10
2023-04-03T09:18:19.175Z,15.07
2023-04-03T09:19:19.201Z,15.26
2023-04-03T09:20:20.714Z,15.05
2023-04-03T09:21:19.132Z,14.94
2023-04-03T09:22:19.091Z,14.77
2023-04-03T09:23:19.144Z,14.55
2023-04-03T09:24:19.057Z,14.53
2023-04-03T09:25:19.056Z,14.41
2023-04-03T09:26:19.033Z,14.44
2023-04-03T09:27:19.152Z,14.40
2023-04-03T09:28:19.009Z,14.43
2023-04-03T09:29:19.074Z,14.51
2023-04-03T09:30:19.210Z,14.40
2023-04-03T09:31:19.047Z,14.40
2023-04-03T09:32:19.025Z,14.28
2023-04-03T09:33:19.003Z,14.28
2023-04-03T09:34:18.949Z,14.26
2023-04-03T09:35:24.950Z,14.28
2023-04-03T09:36:19.982Z,14.30
2023-04-03T09:37:19.108Z,14.20
2023-04-03T09:38:19.034Z,14.26
2023-04-03T09:39:18.910Z,14.40
2023-04-03T09:40:18.888Z,14.48
2023-04-03T09:41:18.884Z,14.66
2023-04-03T09:42:18.902Z,14.74
2023-04-03T09:43:18.930Z,14.85
2023-04-03T09:44:18.892Z,15.05
2023-04-03T09:45:18.928Z,15.27
2023-04-03T09:46:20.655Z,15.23
2023-04-03T09:47:18.828Z,15.18
2023-04-03T09:48:18.879Z,15.25
2023-04-03T09:49:18.822Z,15.18
2023-04-03T09:50:18.814Z,15.25
2023-04-03T09:51:18.761Z,15.35
2023-04-03T09:52:18.749Z,15.47
2023-04-03T09:53:18.762Z,15.51
2023-04-03T09:54:18.756Z,15.57
2023-04-03T09:55:18.974Z,15.51
2023-04-03T09:56:18.752Z,15.41
2023-04-03T09:57:18.778Z,15.37
2023-04-03T09:58:18.685Z,15.48
2023-04-03T09:59:18.744Z,15.48
2023-04-03T10:00:18.677Z,15.55
2023-04-03T10:01:18.686Z,15.67
2023-04-03T10:02:18.653Z,15.54
2023-04-03T10:03:18.642Z,15.57
2023-04-03T10:04:18.673Z,15.50
2023-04-03T10:05:18.705Z,15.33
2023-04-03T10:06:18.625Z,15.17
2023-04-03T10:07:18.647Z,15.00
2023-04-03T10:08:18.618Z,14.77
2023-04-03T10:09:18.578Z,14.49
2023-04-03T10:10:18.566Z,14.23
2023-04-03T10:11:18.623Z,14.01
2023-04-03T10:12:18.698Z,13.79
2023-04-03T10:13:21.093Z,13.73
2023-04-03T10:14:18.533Z,13.60
2023-04-03T10:15:18.513Z,13.49
2023-04-03T10:16:18.565Z,13.46
2023-04-03T10:17:18.486Z,13.43
2023-04-03T10:18:24.274Z,13.37
2023-04-03T10:19:19.505Z,13.27
2023-04-03T10:20:18.447Z,13.13
2023-04-03T10:21:27.127Z,13.05
2023-04-03T10:22:19.450Z,12.95
2023-04-03T10:23:18.403Z,12.84
2023-04-03T10:24:18.433Z,12.73
2023-04-03T10:25:18.467Z,12.72
2023-04-03T10:26:18.379Z,12.69
2023-04-03T10:27:18.379Z,12.73
2023-04-03T10:28:18.379Z,12.80
2023-04-03T10:29:18.354Z,12.76
2023-04-03T10:30:18.326Z,12.65
2023-04-03T10:31:18.375Z,12.66
2023-04-03T10:32:18.326Z,12.63
2023-04-03T10:33:18.320Z,12.63
2023-04-03T10:34:18.333Z,12.63
2023-04-03T10:35:18.344Z,12.68
2023-04-03T10:36:18.302Z,12.76
2023-04-03T10:37:18.267Z,12.76
2023-04-03T10:38:18.274Z,12.81
2023-04-03T10:39:18.267Z,12.87
2023-04-03T10:40:18.235Z,12.78
2023-04-03T10:41:18.205Z,12.78
2023-04-03T10:42:18.327Z,12.88
2023-04-03T10:43:18.208Z,13.02
2023-04-03T10:44:18.282Z,13.12
2023-04-03T10:45:18.185Z,13.24
2023-04-03T10:46:18.213Z,13.45
2023-04-03T10:47:18.211Z,13.76
2023-04-03T10:48:18.333Z,13.95
2023-04-03T10:49:18.164Z,13.95
2023-04-03T10:50:18.111Z,13.87
2023-04-03T10:51:18.246Z,13.87
2023-04-03T10:52:18.079Z,13.89
2023-04-03T10:53:18.110Z,13.75
2023-04-03T10:54:18.096Z,13.70
2023-04-03T10:55:18.071Z,13.68
2023-04-03T10:56:18.075Z,13.60
2023-04-03T10:57:18.124Z,13.57
2023-04-03T10:58:18.053Z,13.45
2023-04-03T10:59:18.019Z,13.39
2023-04-03T11:00:18.015Z,13.52
2023-04-03T11:01:18.042Z,13.68
2023-04-03T11:02:18.026Z,13.93
2023-04-03T11:03:18.062Z,14.08
2023-04-03T11:04:17.989Z,14.13
2023-04-03T11:05:17.962Z,14.18
2023-04-03T11:06:18.014Z,14.05
2023-04-03T11:07:17.947Z,14.12
2023-04-03T11:08:17.974Z,14.26
2023-04-03T11:09:18.048Z,14.38
2023-04-03T11:10:17.942Z,14.23
2023-04-03T11:11:17.890Z,14.22
2023-04-03T11:12:17.999Z,14.31
2023-04-03T11:13:17.988Z,14.53
2023-04-03T11:14:17.855Z,14.74
2023-04-03T11:15:17.895Z,15.02
2023-04-03T11:16:17.961Z,15.26
2023-04-03T11:17:17.829Z,15.52
2023-04-03T11:18:17.919Z,15.75
2023-04-03T11:19:17.837Z,16.16
2023-04-03T11:20:17.832Z,16.72
2023-04-03T11:21:17.860Z,17.22
2023-04-03T11:22:17.807Z,17.84
2023-04-03T11:23:17.768Z,18.24
2023-04-03T11:24:17.766Z,18.31
2023-04-03T11:25:17.771Z,18.71
2023-04-03T11:26:17.787Z,19.07
2023-04-03T11:27:17.768Z,19.57
2023-04-03T11:28:17.753Z,19.82
2023-04-03T11:29:28.224Z,19.97
2023-04-03T11:30:18.739Z,19.99
2023-04-03T11:31:17.793Z,18.70
2023-04-03T11:32:17.675Z,18.97
2023-04-03T11:33:17.648Z,19.12
2023-04-03T11:34:17.642Z,19.55
2023-04-03T11:35:17.664Z,19.82
2023-04-03T11:36:26.330Z,19.92
2023-04-03T11:37:18.828Z,19.85
2023-04-03T11:38:17.628Z,19.64
2023-04-03T11:39:17.622Z,19.70
2023-04-03T11:40:17.605Z,19.82
2023-04-03T11:41:17.644Z,19.79
2023-04-03T11:42:17.644Z,19.89
2023-04-03T11:43:17.531Z,19.97
2023-04-03T11:44:17.536Z,20.07
2023-04-03T11:45:17.658Z,20.17
2023-04-03T11:46:17.544Z,20.19
2023-04-03T11:47:17.591Z,20.03
2023-04-03T11:48:24.458Z,19.93
2023-04-03T11:49:18.510Z,19.89
2023-04-03T11:50:17.512Z,19.75
2023-04-03T11:51:17.554Z,19.71
2023-04-03T11:52:17.472Z,19.60
2023-04-03T11:53:17.566Z,19.64
2023-04-03T11:54:17.473Z,19.62
2023-04-03T11:55:17.428Z,19.57
2023-04-03T11:56:17.491Z,19.59
2023-04-03T11:57:17.464Z,19.64
2023-04-03T11:58:17.394Z,19.63
2023-04-03T11:59:17.423Z,19.67
2023-04-03T12:00:17.367Z,19.55
2023-04-03T12:01:17.395Z,19.62
2023-04-03T12:02:17.377Z,19.75
2023-04-03T12:03:17.483Z,20.07
2023-04-03T12:04:17.465Z,20.03
2023-04-03T12:05:17.338Z,20.02
2023-04-03T12:06:17.326Z,20.21
2023-04-03T12:07:17.402Z,20.32
2023-04-03T12:08:17.302Z,20.40
2023-04-03T12:09:17.256Z,20.58
2023-04-03T12:10:28.730Z,20.70
2023-04-03T12:11:18.252Z,20.85
2023-04-03T12:12:17.483Z,21.10
2023-04-03T12:13:17.227Z,21.40
2023-04-03T12:14:17.232Z,21.58
2023-04-03T12:15:17.401Z,21.91
2023-04-03T12:16:17.213Z,22.36
2023-04-03T12:17:17.174Z,22.62
2023-04-03T12:18:17.364Z,23.01
2023-04-03T12:19:17.518Z,23.32
2023-04-03T12:20:17.128Z,23.58
2023-04-03T12:21:17.717Z,23.64
2023-04-03T12:22:17.153Z,22.74
2023-04-03T12:23:17.229Z,22.30
2023-04-03T12:24:17.120Z,22.56
2023-04-03T12:25:17.160Z,22.96
2023-04-03T12:26:17.178Z,23.36
2023-04-03T12:27:17.170Z,23.59
2023-04-03T12:28:17.176Z,23.64
2023-04-03T12:29:17.104Z,23.63
2023-04-03T12:30:17.063Z,23.81
2023-04-03T12:31:17.182Z,23.86
2023-04-03T12:32:17.026Z,24.13
2023-04-03T12:33:17.678Z,24.21
2023-04-03T12:34:17.035Z,24.14
2023-04-03T12:35:17.036Z,24.04
2023-04-03T12:36:17.047Z,23.91
2023-04-03T12:37:16.999Z,24.10
2023-04-03T12:38:17.052Z,24.48
2023-04-03T12:39:16.948Z,24.48
2023-04-03T12:40:16.947Z,24.74
2023-04-03T12:41:16.956Z,24.86
2023-04-03T12:42:17.017Z,24.74
2023-04-03T12:43:17.025Z,23.88
2023-04-03T12:44:16.885Z,24.21
2023-04-03T12:45:16.944Z,24.36
2023-04-03T12:46:17.432Z,23.26
2023-04-03T12:47:16.963Z,22.34
2023-04-03T12:48:16.917Z,22.41
2023-04-03T12:49:16.857Z,22.38
2023-04-03T12:50:16.837Z,21.68
2023-04-03T12:51:16.814Z,20.60
2023-04-03T12:52:16.896Z,19.53
2023-04-03T12:53:16.836Z,18.46
2023-04-03T12:54:16.788Z,18.11
2023-04-03T12:55:16.779Z,19.42
2023-04-03T12:56:16.782Z,20.78
2023-04-03T12:57:16.776Z,21.68
2023-04-03T12:58:16.742Z,22.36
2023-04-03T12:59:16.749Z,23.01
2023-04-03T13:00:16.727Z,23.52
2023-04-03T13:01:16.730Z,22.67
2023-04-03T13:02:16.713Z,21.89
2023-04-03T13:03:16.770Z,22.26
2023-04-03T13:04:16.682Z,22.89
2023-04-03T13:05:16.685Z,23.28
2023-04-03T13:06:16.659Z,23.63
2023-04-03T13:07:16.688Z,23.79
2023-04-03T13:08:16.635Z,23.95